sensor_id;sensor_type;location;lat;lon;timestamp;pressure;altitude;pressure_sealevel;temperature;humidity
65157;BME280;52745;49.794;18.258;2023-02-28T00:00:37;-15933.28;;;-0.15;64.06
65157;BME280;52745;49.794;18.258;2023-02-28T00:03:16;-15930.25;;;-0.27;64.66
65157;BME280;52745;49.794;18.258;2023-02-28T00:05:43;-15932.16;;;-0.19;65.13
65157;BME280;52745;49.794;18.258;2023-02-28T00:08:10;-15931.22;;;-0.23;64.34
65157;BME280;52745;49.794;18.258;2023-02-28T00:10:36;-15930.66;;;-0.25;64.42
65157;BME280;52745;49.794;18.258;2023-02-28T00:13:05;-15925.88;;;-0.43;65.42
65157;BME280;52745;49.794;18.258;2023-02-28T00:15:33;-15925.88;;;-0.43;64.84
65157;BME280;52745;49.794;18.258;2023-02-28T00:18:00;-15926.28;;;-0.42;65.44
65157;BME280;52745;49.794;18.258;2023-02-28T00:20:26;-15925.59;;;-0.44;64.95
65157;BME280;52745;49.794;18.258;2023-02-28T00:22:53;-15924.09;;;-0.50;65.92
65157;BME280;52745;49.794;18.258;2023-02-28T00:25:24;-15919.56;;;-0.67;65.68
65157;BME280;52745;49.794;18.258;2023-02-28T00:27:51;-15921.34;;;-0.60;66.34
65157;BME280;52745;49.794;18.258;2023-02-28T00:30:21;-15922.03;;;-0.57;65.89
65157;BME280;52745;49.794;18.258;2023-02-28T00:32:48;-15923.94;;;-0.50;66.18
65157;BME280;52745;49.794;18.258;2023-02-28T00:35:15;-15920.66;;;-0.63;66.96
65157;BME280;52745;49.794;18.258;2023-02-28T00:37:43;-15921.19;;;-0.60;66.72
65157;BME280;52745;49.794;18.258;2023-02-28T00:40:10;-15921.47;;;-0.59;66.20
65157;BME280;52745;49.794;18.258;2023-02-28T00:42:39;-15919.69;;;-0.66;66.78
65157;BME280;52745;49.794;18.258;2023-02-28T00:45:07;-15920.78;;;-0.62;66.60
65157;BME280;52745;49.794;18.258;2023-02-28T00:47:37;-15922.84;;;-0.54;66.58
65157;BME280;52745;49.794;18.258;2023-02-28T00:50:05;-15920.94;;;-0.61;66.52
65157;BME280;52745;49.794;18.258;2023-02-28T00:52:32;-15918.19;;;-0.72;67.30
65157;BME280;52745;49.794;18.258;2023-02-28T00:54:58;-15918.72;;;-0.70;67.57
65157;BME280;52745;49.794;18.258;2023-02-28T00:57:25;-15919.56;;;-0.67;67.30
65157;BME280;52745;49.794;18.258;2023-02-28T00:59:52;-15918.72;;;-0.70;67.45
65157;BME280;52745;49.794;18.258;2023-02-28T01:02:22;-15918.06;;;-0.72;67.74
65157;BME280;52745;49.794;18.258;2023-02-28T01:04:49;-15916.28;;;-0.79;68.20
65157;BME280;52745;49.794;18.258;2023-02-28T01:07:16;-15915.59;;;-0.81;68.55
65157;BME280;52745;49.794;18.258;2023-02-28T01:09:42;-15916.53;;;-0.78;68.46
65157;BME280;52745;49.794;18.258;2023-02-28T01:12:09;-15916.94;;;-0.76;68.47
65157;BME280;52745;49.794;18.258;2023-02-28T01:14:36;-15916.53;;;-0.78;68.27
65157;BME280;52745;49.794;18.258;2023-02-28T01:17:03;-15919.00;;;-0.69;68.34
65157;BME280;52745;49.794;18.258;2023-02-28T01:19:32;-15919.69;;;-0.66;68.25
65157;BME280;52745;49.794;18.258;2023-02-28T01:22:06;-15918.06;;;-0.72;68.83
65157;BME280;52745;49.794;18.258;2023-02-28T01:24:34;-15916.53;;;-0.78;69.09
65157;BME280;52745;49.794;18.258;2023-02-28T01:27:02;-15916.41;;;-0.78;68.97
65157;BME280;52745;49.794;18.258;2023-02-28T01:29:28;-15914.34;;;-0.86;69.65
65157;BME280;52745;49.794;18.258;2023-02-28T01:31:55;-15916.41;;;-0.78;69.93
65157;BME280;52745;49.794;18.258;2023-02-28T01:34:23;-15916.94;;;-0.76;69.14
65157;BME280;52745;49.794;18.258;2023-02-28T01:36:51;-15916.00;;;-0.80;69.38
65157;BME280;52745;49.794;18.258;2023-02-28T01:39:19;-15915.44;;;-0.82;69.58
65157;BME280;52745;49.794;18.258;2023-02-28T01:41:46;-15914.75;;;-0.85;69.61
65157;BME280;52745;49.794;18.258;2023-02-28T01:45:18;-15910.91;;;-0.99;70.61
65157;BME280;52745;49.794;18.258;2023-02-28T01:47:19;-15909.97;;;-1.02;71.15
65157;BME280;52745;49.794;18.258;2023-02-28T01:49:46;-15910.25;;;-1.01;71.12
65157;BME280;52745;49.794;18.258;2023-02-28T01:52:14;-15911.19;;;-0.98;71.39
65157;BME280;52745;49.794;18.258;2023-02-28T01:54:52;-15909.69;;;-1.03;71.95
65157;BME280;52745;49.794;18.258;2023-02-28T01:57:24;-15908.19;;;-1.09;72.15
65157;BME280;52745;49.794;18.258;2023-02-28T01:59:55;-15910.09;;;-1.02;72.13
65157;BME280;52745;49.794;18.258;2023-02-28T02:02:26;-15909.56;;;-1.04;71.65
65157;BME280;52745;49.794;18.258;2023-02-28T02:05:00;-15908.44;;;-1.08;71.87
65157;BME280;52745;49.794;18.258;2023-02-28T02:07:35;-15908.03;;;-1.10;72.37
65157;BME280;52745;49.794;18.258;2023-02-28T02:15:53;-15906.94;;;-1.14;72.78
65157;BME280;52745;49.794;18.258;2023-02-28T02:18:54;-15906.13;;;-1.17;72.93
65157;BME280;52745;49.794;18.258;2023-02-28T02:21:52;-15903.50;;;-1.27;73.25
65157;BME280;52745;49.794;18.258;2023-02-28T02:36:20;-15896.13;;;-1.54;74.39
65157;BME280;52745;49.794;18.258;2023-02-28T02:39:19;-15896.13;;;-1.54;74.60
65157;BME280;52745;49.794;18.258;2023-02-28T02:41:52;-15896.66;;;-1.52;74.66
65157;BME280;52745;49.794;18.258;2023-02-28T02:44:27;-15896.78;;;-1.52;74.67
65157;BME280;52745;49.794;18.258;2023-02-28T02:47:24;-15897.34;;;-1.50;74.93
65157;BME280;52745;49.794;18.258;2023-02-28T02:49:55;-15896.94;;;-1.51;74.36
65157;BME280;52745;49.794;18.258;2023-02-28T02:52:31;-15897.22;;;-1.50;74.83
65157;BME280;52745;49.794;18.258;2023-02-28T02:55:02;-15895.69;;;-1.56;75.37
65157;BME280;52745;49.794;18.258;2023-02-28T02:57:43;-15894.47;;;-1.60;75.74
65157;BME280;52745;49.794;18.258;2023-02-28T03:00:12;-15890.75;;;-1.74;76.21
65157;BME280;52745;49.794;18.258;2023-02-28T03:02:41;-15888.28;;;-1.83;76.71
65157;BME280;52745;49.794;18.258;2023-02-28T03:05:24;-15889.38;;;-1.79;76.76
65157;BME280;52745;49.794;18.258;2023-02-28T03:07:52;-15889.66;;;-1.78;76.67
65157;BME280;52745;49.794;18.258;2023-02-28T03:10:38;-15887.59;;;-1.86;76.68
65157;BME280;52745;49.794;18.258;2023-02-28T03:13:18;-15887.34;;;-1.87;76.77
65157;BME280;52745;49.794;18.258;2023-02-28T03:18:35;-15888.03;;;-1.84;76.88
65157;BME280;52745;49.794;18.258;2023-02-28T03:21:26;-15888.56;;;-1.82;76.88
65157;BME280;52745;49.794;18.258;2023-02-28T03:26:34;-15887.75;;;-1.85;76.98
65157;BME280;52745;49.794;18.258;2023-02-28T03:31:40;-15888.69;;;-1.82;77.10
65157;BME280;52745;49.794;18.258;2023-02-28T03:34:16;-15885.28;;;-1.95;77.08
65157;BME280;52745;49.794;18.258;2023-02-28T03:36:48;-15886.91;;;-1.89;77.38
65157;BME280;52745;49.794;18.258;2023-02-28T03:39:27;-15887.47;;;-1.87;77.18
65157;BME280;52745;49.794;18.258;2023-02-28T03:42:05;-15885.41;;;-1.94;77.73
65157;BME280;52745;49.794;18.258;2023-02-28T03:44:48;-15885.56;;;-1.94;77.94
65157;BME280;52745;49.794;18.258;2023-02-28T03:47:53;-15885.69;;;-1.93;77.94
65157;BME280;52745;49.794;18.258;2023-02-28T03:52:58;-15885.28;;;-1.95;77.98
65157;BME280;52745;49.794;18.258;2023-02-28T03:55:40;-15887.19;;;-1.88;77.31
65157;BME280;52745;49.794;18.258;2023-02-28T04:00:46;-15886.50;;;-1.90;77.87
65157;BME280;52745;49.794;18.258;2023-02-28T04:03:14;-15886.66;;;-1.90;77.78
65157;BME280;52745;49.794;18.258;2023-02-28T04:05:52;-15886.09;;;-1.92;78.09
65157;BME280;52745;49.794;18.258;2023-02-28T04:08:21;-15885.69;;;-1.93;78.30
65157;BME280;52745;49.794;18.258;2023-02-28T04:10:57;-15886.22;;;-1.91;78.11
65157;BME280;52745;49.794;18.258;2023-02-28T04:13:27;-15885.81;;;-1.93;78.41
65157;BME280;52745;49.794;18.258;2023-02-28T04:15:54;-15886.38;;;-1.91;78.48
65157;BME280;52745;49.794;18.258;2023-02-28T04:18:21;-15885.97;;;-1.92;78.02
65157;BME280;52745;49.794;18.258;2023-02-28T04:20:47;-15886.91;;;-1.89;77.78
65157;BME280;52745;49.794;18.258;2023-02-28T04:23:14;-15885.00;;;-1.96;77.97
65157;BME280;52745;49.794;18.258;2023-02-28T04:25:41;-15886.09;;;-1.92;77.71
65157;BME280;52745;49.794;18.258;2023-02-28T04:28:08;-15884.72;;;-1.97;77.80
65157;BME280;52745;49.794;18.258;2023-02-28T04:30:37;-15886.09;;;-1.92;78.03
65157;BME280;52745;49.794;18.258;2023-02-28T04:33:04;-15885.41;;;-1.94;78.35
65157;BME280;52745;49.794;18.258;2023-02-28T04:35:31;-15885.81;;;-1.93;77.57
65157;BME280;52745;49.794;18.258;2023-02-28T04:37:58;-15886.09;;;-1.92;77.57
65157;BME280;52745;49.794;18.258;2023-02-28T04:40:24;-15885.56;;;-1.94;77.96
65157;BME280;52745;49.794;18.258;2023-02-28T04:42:51;-15882.81;;;-2.04;78.06
65157;BME280;52745;49.794;18.258;2023-02-28T04:45:18;-15882.13;;;-2.06;77.96
65157;BME280;52745;49.794;18.258;2023-02-28T04:47:45;-15879.38;;;-2.17;78.23
65157;BME280;52745;49.794;18.258;2023-02-28T04:50:12;-15879.38;;;-2.17;78.32
65157;BME280;52745;49.794;18.258;2023-02-28T04:52:38;-15880.47;;;-2.13;78.32
65157;BME280;52745;49.794;18.258;2023-02-28T04:55:05;-15879.78;;;-2.15;78.63
65157;BME280;52745;49.794;18.258;2023-02-28T04:57:32;-15880.34;;;-2.13;78.38
65157;BME280;52745;49.794;18.258;2023-02-28T04:59:59;-15879.50;;;-2.16;78.47
65157;BME280;52745;49.794;18.258;2023-02-28T05:02:26;-15880.88;;;-2.11;78.49
65157;BME280;52745;49.794;18.258;2023-02-28T05:04:53;-15878.69;;;-2.19;78.39
65157;BME280;52745;49.794;18.258;2023-02-28T05:07:19;-15878.41;;;-2.20;78.61
65157;BME280;52745;49.794;18.258;2023-02-28T05:09:46;-15878.69;;;-2.19;78.83
65157;BME280;52745;49.794;18.258;2023-02-28T05:12:13;-15880.34;;;-2.13;78.18
65157;BME280;52745;49.794;18.258;2023-02-28T05:14:40;-15881.72;;;-2.08;78.06
65157;BME280;52745;49.794;18.258;2023-02-28T05:17:07;-15880.88;;;-2.11;78.39
65157;BME280;52745;49.794;18.258;2023-02-28T05:19:35;-15879.50;;;-2.16;78.72
65157;BME280;52745;49.794;18.258;2023-02-28T05:22:01;-15880.47;;;-2.13;78.98
65157;BME280;52745;49.794;18.258;2023-02-28T05:24:29;-15878.69;;;-2.19;79.00
65157;BME280;52745;49.794;18.258;2023-02-28T05:26:55;-15881.03;;;-2.11;79.12
65157;BME280;52745;49.794;18.258;2023-02-28T05:29:22;-15879.50;;;-2.16;79.03
65157;BME280;52745;49.794;18.258;2023-02-28T05:31:49;-15879.50;;;-2.16;79.26
65157;BME280;52745;49.794;18.258;2023-02-28T05:34:16;-15878.84;;;-2.19;79.51
65157;BME280;52745;49.794;18.258;2023-02-28T05:36:43;-15879.38;;;-2.17;79.06
65157;BME280;52745;49.794;18.258;2023-02-28T05:39:10;-15880.75;;;-2.12;79.18
65157;BME280;52745;49.794;18.258;2023-02-28T05:41:40;-15878.97;;;-2.18;79.14
65157;BME280;52745;49.794;18.258;2023-02-28T05:44:07;-15876.78;;;-2.26;79.37
65157;BME280;52745;49.794;18.258;2023-02-28T05:46:34;-15879.50;;;-2.16;79.44
65157;BME280;52745;49.794;18.258;2023-02-28T05:49:01;-15880.19;;;-2.14;79.90
65157;BME280;52745;49.794;18.258;2023-02-28T05:51:28;-15880.75;;;-2.12;79.25
65157;BME280;52745;49.794;18.258;2023-02-28T05:53:58;-15882.66;;;-2.04;78.76
65157;BME280;52745;49.794;18.258;2023-02-28T05:56:26;-15884.88;;;-1.96;78.25
65157;BME280;52745;49.794;18.258;2023-02-28T05:58:52;-15884.59;;;-1.97;78.49
65157;BME280;52745;49.794;18.258;2023-02-28T06:01:30;-15883.50;;;-2.01;78.40
65157;BME280;52745;49.794;18.258;2023-02-28T06:03:59;-15884.19;;;-1.99;78.54
65157;BME280;52745;49.794;18.258;2023-02-28T06:06:26;-15881.97;;;-2.07;78.19
65157;BME280;52745;49.794;18.258;2023-02-28T06:08:53;-15883.50;;;-2.01;78.10
65157;BME280;52745;49.794;18.258;2023-02-28T06:11:20;-15883.22;;;-2.02;78.04
65157;BME280;52745;49.794;18.258;2023-02-28T06:13:47;-15885.28;;;-1.95;78.23
65157;BME280;52745;49.794;18.258;2023-02-28T06:16:15;-15886.09;;;-1.92;77.95
65157;BME280;52745;49.794;18.258;2023-02-28T06:18:41;-15886.38;;;-1.91;78.20
65157;BME280;52745;49.794;18.258;2023-02-28T06:21:08;-15887.34;;;-1.87;77.70
65157;BME280;52745;49.794;18.258;2023-02-28T06:23:35;-15887.19;;;-1.88;77.84
65157;BME280;52745;49.794;18.258;2023-02-28T06:26:02;-15889.13;;;-1.80;77.60
65157;BME280;52745;49.794;18.258;2023-02-28T06:28:29;-15891.31;;;-1.72;77.07
65157;BME280;52745;49.794;18.258;2023-02-28T06:30:56;-15893.09;;;-1.65;76.78
65157;BME280;52745;49.794;18.258;2023-02-28T06:33:23;-15895.84;;;-1.55;76.71
65157;BME280;52745;49.794;18.258;2023-02-28T06:35:50;-15894.47;;;-1.60;76.73
65157;BME280;52745;49.794;18.258;2023-02-28T06:38:18;-15897.47;;;-1.49;75.99
65157;BME280;52745;49.794;18.258;2023-02-28T06:40:44;-15899.25;;;-1.42;75.96
65157;BME280;52745;49.794;18.258;2023-02-28T06:43:18;-15899.53;;;-1.41;76.08
65157;BME280;52745;49.794;18.258;2023-02-28T06:45:45;-15897.75;;;-1.48;76.51
65157;BME280;52745;49.794;18.258;2023-02-28T06:48:12;-15898.84;;;-1.44;76.04
65157;BME280;52745;49.794;18.258;2023-02-28T06:50:39;-15898.03;;;-1.47;76.25
65157;BME280;52745;49.794;18.258;2023-02-28T06:53:05;-15903.09;;;-1.28;75.31
65157;BME280;52745;49.794;18.258;2023-02-28T06:55:33;-15899.81;;;-1.40;75.92
65157;BME280;52745;49.794;18.258;2023-02-28T06:57:59;-15902.28;;;-1.31;75.94
65157;BME280;52745;49.794;18.258;2023-02-28T07:00:26;-15900.63;;;-1.37;75.59
65157;BME280;52745;49.794;18.258;2023-02-28T07:02:53;-15900.50;;;-1.38;75.32
65157;BME280;52745;49.794;18.258;2023-02-28T07:05:21;-15900.50;;;-1.38;75.30
65157;BME280;52745;49.794;18.258;2023-02-28T07:07:48;-15900.38;;;-1.38;76.01
65157;BME280;52745;49.794;18.258;2023-02-28T07:10:15;-15904.19;;;-1.24;75.98
65157;BME280;52745;49.794;18.258;2023-02-28T07:12:43;-15907.50;;;-1.12;75.17
65157;BME280;52745;49.794;18.258;2023-02-28T07:15:10;-15909.81;;;-1.03;74.00
65157;BME280;52745;49.794;18.258;2023-02-28T07:17:37;-15905.44;;;-1.19;74.75
65157;BME280;52745;49.794;18.258;2023-02-28T07:20:04;-15907.50;;;-1.12;73.96
65157;BME280;52745;49.794;18.258;2023-02-28T07:22:31;-15909.56;;;-1.04;74.03
65157;BME280;52745;49.794;18.258;2023-02-28T07:24:58;-15910.50;;;-1.00;74.23
65157;BME280;52745;49.794;18.258;2023-02-28T07:27:24;-15917.09;;;-0.76;73.09
65157;BME280;52745;49.794;18.258;2023-02-28T07:29:52;-15917.63;;;-0.74;72.53
65157;BME280;52745;49.794;18.258;2023-02-28T07:32:19;-15922.16;;;-0.57;71.89
65157;BME280;52745;49.794;18.258;2023-02-28T07:34:46;-15927.91;;;-0.35;72.82
65157;BME280;52745;49.794;18.258;2023-02-28T07:37:13;-15930.78;;;-0.25;71.25
65157;BME280;52745;49.794;18.258;2023-02-28T07:39:40;-15935.47;;;-0.07;70.70
65157;BME280;52745;49.794;18.258;2023-02-28T07:42:09;-15933.53;;;-0.14;72.67
65157;BME280;52745;49.794;18.258;2023-02-28T07:44:39;-15937.50;;;0.01;70.60
65157;BME280;52745;49.794;18.258;2023-02-28T07:47:09;-15940.41;;;0.11;70.45
65157;BME280;52745;49.794;18.258;2023-02-28T07:49:36;-15951.63;;;0.53;70.21
65157;BME280;52745;49.794;18.258;2023-02-28T07:52:05;-15951.91;;;0.54;68.49
65157;BME280;52745;49.794;18.258;2023-02-28T07:54:33;-15956.56;;;0.72;67.67
65157;BME280;52745;49.794;18.258;2023-02-28T07:57:00;-15957.53;;;0.75;66.59
65157;BME280;52745;49.794;18.258;2023-02-28T07:59:27;-15958.75;;;0.80;67.07
65157;BME280;52745;49.794;18.258;2023-02-28T08:02:03;-15956.00;;;0.70;66.91
65157;BME280;52745;49.794;18.258;2023-02-28T08:04:35;-15956.00;;;0.70;66.92
65157;BME280;52745;49.794;18.258;2023-02-28T08:07:02;-15955.75;;;0.69;66.86
65157;BME280;52745;49.794;18.258;2023-02-28T08:09:29;-15960.94;;;0.88;66.35
65157;BME280;52745;49.794;18.258;2023-02-28T08:11:56;-15960.53;;;0.87;66.79
65157;BME280;52745;49.794;18.258;2023-02-28T08:14:23;-15962.59;;;0.94;66.49
65157;BME280;52745;49.794;18.258;2023-02-28T08:16:50;-15966.97;;;1.11;65.46
65157;BME280;52745;49.794;18.258;2023-02-28T08:19:17;-15969.84;;;1.21;65.94
65157;BME280;52745;49.794;18.258;2023-02-28T08:21:43;-15970.25;;;1.23;64.55
65157;BME280;52745;49.794;18.258;2023-02-28T08:24:10;-15974.91;;;1.40;65.46
65157;BME280;52745;49.794;18.258;2023-02-28T08:26:37;-15978.47;;;1.54;64.39
65157;BME280;52745;49.794;18.258;2023-02-28T08:29:04;-15981.22;;;1.64;62.67
65157;BME280;52745;49.794;18.258;2023-02-28T08:31:30;-15975.59;;;1.43;62.06
65157;BME280;52745;49.794;18.258;2023-02-28T08:33:57;-15992.31;;;2.05;61.46
65157;BME280;52745;49.794;18.258;2023-02-28T08:36:25;-16028.59;;;3.41;57.25
65157;BME280;52745;49.794;18.258;2023-02-28T08:38:56;-16076.47;;;5.21;51.25
65157;BME280;52745;49.794;18.258;2023-02-28T08:41:23;-16102.44;;;6.18;46.86
65157;BME280;52745;49.794;18.258;2023-02-28T08:43:50;-16136.31;;;7.45;44.73
65157;BME280;52745;49.794;18.258;2023-02-28T08:46:16;-16159.81;;;8.33;42.18
65157;BME280;52745;49.794;18.258;2023-02-28T08:48:43;-16185.88;;;9.31;39.43
65157;BME280;52745;49.794;18.258;2023-02-28T08:51:13;-16178.66;;;9.04;38.62
65157;BME280;52745;49.794;18.258;2023-02-28T08:53:40;-16194.88;;;9.65;37.71
65157;BME280;52745;49.794;18.258;2023-02-28T08:56:10;-16188.19;;;9.40;37.02
65157;BME280;52745;49.794;18.258;2023-02-28T08:58:38;-16202.78;;;9.94;36.84
65157;BME280;52745;49.794;18.258;2023-02-28T09:01:19;-16217.13;;;10.48;34.52
65157;BME280;52745;49.794;18.258;2023-02-28T09:03:48;-16212.75;;;10.32;33.97
65157;BME280;52745;49.794;18.258;2023-02-28T09:06:17;-16243.69;;;11.48;32.08
65157;BME280;52745;49.794;18.258;2023-02-28T09:08:45;-16262.38;;;12.18;31.50
65157;BME280;52745;49.794;18.258;2023-02-28T09:11:12;-16260.88;;;12.13;30.28
65157;BME280;52745;49.794;18.258;2023-02-28T09:13:39;-16271.09;;;12.51;30.69
65157;BME280;52745;49.794;18.258;2023-02-28T09:16:09;-16266.72;;;12.35;30.85
65157;BME280;52745;49.794;18.258;2023-02-28T09:18:38;-16262.63;;;12.19;30.48
65157;BME280;52745;49.794;18.258;2023-02-28T09:21:06;-16259.63;;;12.08;30.98
65157;BME280;52745;49.794;18.258;2023-02-28T09:23:33;-16251.06;;;11.76;30.59
65157;BME280;52745;49.794;18.258;2023-02-28T09:26:00;-16193.38;;;9.59;31.99
65157;BME280;52745;49.794;18.258;2023-02-28T09:28:27;-16189.84;;;9.46;33.22
65157;BME280;52745;49.794;18.258;2023-02-28T09:30:54;-16231.56;;;11.03;31.15
65157;BME280;52745;49.794;18.258;2023-02-28T09:33:21;-16197.19;;;9.73;31.88
65157;BME280;52745;49.794;18.258;2023-02-28T09:35:49;-16219.97;;;10.59;32.36
65157;BME280;52745;49.794;18.258;2023-02-28T09:38:17;-16246.97;;;11.60;29.51
65157;BME280;52745;49.794;18.258;2023-02-28T09:40:51;-16256.50;;;11.96;30.22
65157;BME280;52745;49.794;18.258;2023-02-28T09:43:22;-16277.06;;;12.74;29.14
65157;BME280;52745;49.794;18.258;2023-02-28T09:49:19;-16307.56;;;13.89;26.72
65157;BME280;52745;49.794;18.258;2023-02-28T09:54:23;-16320.75;;;14.38;26.87
65157;BME280;52745;49.794;18.258;2023-02-28T09:56:53;-16340.22;;;15.11;25.75
65157;BME280;52745;49.794;18.258;2023-02-28T09:59:31;-16331.66;;;14.79;25.86
65157;BME280;52745;49.794;18.258;2023-02-28T10:02:33;-16330.00;;;14.73;25.83
65157;BME280;52745;49.794;18.258;2023-02-28T10:05:12;-16286.59;;;13.10;28.26
65157;BME280;52745;49.794;18.258;2023-02-28T10:07:56;-16301.16;;;13.64;27.57
65157;BME280;52745;49.794;18.258;2023-02-28T10:10:55;-16307.84;;;13.90;27.50
65157;BME280;52745;49.794;18.258;2023-02-28T10:13:33;-16299.94;;;13.60;27.24
65157;BME280;52745;49.794;18.258;2023-02-28T10:16:06;-16297.91;;;13.52;27.90
65157;BME280;52745;49.794;18.258;2023-02-28T10:18:47;-16310.81;;;14.01;27.30
65157;BME280;52745;49.794;18.258;2023-02-28T10:21:27;-16280.88;;;12.88;28.90
65157;BME280;52745;49.794;18.258;2023-02-28T10:24:57;-16298.31;;;13.54;28.28
65157;BME280;52745;49.794;18.258;2023-02-28T10:27:19;-16313.81;;;14.12;26.31
65157;BME280;52745;49.794;18.258;2023-02-28T10:29:49;-16335.03;;;14.92;26.29
65157;BME280;52745;49.794;18.258;2023-02-28T10:32:20;-16340.34;;;15.12;25.83
65157;BME280;52745;49.794;18.258;2023-02-28T10:34:57;-16325.78;;;14.57;25.99
65157;BME280;52745;49.794;18.258;2023-02-28T10:37:27;-16317.75;;;14.27;26.24
65157;BME280;52745;49.794;18.258;2023-02-28T10:39:54;-16328.66;;;14.68;25.95
65157;BME280;52745;49.794;18.258;2023-02-28T10:44:47;-16323.88;;;14.50;27.03
65157;BME280;52745;49.794;18.258;2023-02-28T10:47:19;-16337.22;;;15.00;26.25
65157;BME280;52745;49.794;18.258;2023-02-28T10:49:50;-16334.78;;;14.91;27.16
65157;BME280;52745;49.794;18.258;2023-02-28T10:52:39;-16341.97;;;15.18;27.63
65157;BME280;52745;49.794;18.258;2023-02-28T10:55:35;-16308.38;;;13.92;27.72
65157;BME280;52745;49.794;18.258;2023-02-28T10:58:02;-16303.34;;;13.73;27.94
65157;BME280;52745;49.794;18.258;2023-02-28T11:00:35;-16323.88;;;14.50;25.83
65157;BME280;52745;49.794;18.258;2023-02-28T11:03:28;-16332.72;;;14.83;25.90
65157;BME280;52745;49.794;18.258;2023-02-28T11:05:55;-16323.34;;;14.48;27.83
65157;BME280;52745;49.794;18.258;2023-02-28T11:08:23;-16312.06;;;14.05;27.19
65157;BME280;52745;49.794;18.258;2023-02-28T11:10:56;-16307.44;;;13.88;28.24
65157;BME280;52745;49.794;18.258;2023-02-28T11:13:29;-16304.28;;;13.76;27.60
65157;BME280;52745;49.794;18.258;2023-02-28T11:16:00;-16304.28;;;13.76;27.59
65157;BME280;52745;49.794;18.258;2023-02-28T11:18:52;-16312.19;;;14.06;26.93
65157;BME280;52745;49.794;18.258;2023-02-28T11:21:30;-16317.91;;;14.27;26.74
65157;BME280;52745;49.794;18.258;2023-02-28T11:24:04;-16306.75;;;13.85;26.98
65157;BME280;52745;49.794;18.258;2023-02-28T11:26:44;-16279.38;;;12.82;29.63
65157;BME280;52745;49.794;18.258;2023-02-28T11:29:19;-16264.94;;;12.28;30.32
65157;BME280;52745;49.794;18.258;2023-02-28T11:34:32;-16286.88;;;13.11;30.30
65157;BME280;52745;49.794;18.258;2023-02-28T11:37:00;-16278.56;;;12.79;29.16
65157;BME280;52745;49.794;18.258;2023-02-28T11:39:28;-16279.13;;;12.81;28.76
65157;BME280;52745;49.794;18.258;2023-02-28T11:45:20;-16275.56;;;12.68;30.69
65157;BME280;52745;49.794;18.258;2023-02-28T11:50:52;-16278.97;;;12.81;30.40
65157;BME280;52745;49.794;18.258;2023-02-28T11:53:51;-16278.97;;;12.81;30.64
65157;BME280;52745;49.794;18.258;2023-02-28T11:56:37;-16260.31;;;12.11;30.87
65157;BME280;52745;49.794;18.258;2023-02-28T12:04:17;-16232.09;;;11.05;32.57
65157;BME280;52745;49.794;18.258;2023-02-28T12:07:00;-16236.47;;;11.21;32.51
65157;BME280;52745;49.794;18.258;2023-02-28T12:23:03;-16186.28;;;9.32;33.63
65157;BME280;52745;49.794;18.258;2023-02-28T12:26:09;-16204.69;;;10.02;34.83
65157;BME280;52745;49.794;18.258;2023-02-28T12:28:47;-16194.59;;;9.64;34.57
65157;BME280;52745;49.794;18.258;2023-02-28T12:31:49;-16213.84;;;10.36;34.77
65157;BME280;52745;49.794;18.258;2023-02-28T12:34:22;-16217.94;;;10.51;32.74
65157;BME280;52745;49.794;18.258;2023-02-28T12:36:53;-16217.38;;;10.49;32.76
65157;BME280;52745;49.794;18.258;2023-02-28T12:39:28;-16222.84;;;10.70;32.95
65157;BME280;52745;49.794;18.258;2023-02-28T12:42:05;-16220.13;;;10.60;31.34
65157;BME280;52745;49.794;18.258;2023-02-28T12:44:44;-16223.13;;;10.71;31.73
65157;BME280;52745;49.794;18.258;2023-02-28T12:47:15;-16213.84;;;10.36;32.13
65157;BME280;52745;49.794;18.258;2023-02-28T12:50:04;-16214.38;;;10.38;33.36
65157;BME280;52745;49.794;18.258;2023-02-28T12:52:40;-16198.44;;;9.78;33.95
65157;BME280;52745;49.794;18.258;2023-02-28T12:58:39;-16191.19;;;9.51;34.20
65157;BME280;52745;49.794;18.258;2023-02-28T13:01:34;-16190.66;;;9.49;33.93
65157;BME280;52745;49.794;18.258;2023-02-28T13:07:05;-16180.56;;;9.11;35.79
65157;BME280;52745;49.794;18.258;2023-02-28T13:09:38;-16187.38;;;9.37;37.07
65157;BME280;52745;49.794;18.258;2023-02-28T13:12:14;-16173.19;;;8.83;35.79
65157;BME280;52745;49.794;18.258;2023-02-28T13:14:43;-16177.81;;;9.01;37.88
65157;BME280;52745;49.794;18.258;2023-02-28T13:17:12;-16173.31;;;8.84;35.87
65157;BME280;52745;49.794;18.258;2023-02-28T13:22:42;-16160.06;;;8.34;36.30
65157;BME280;52745;49.794;18.258;2023-02-28T13:27:51;-16161.59;;;8.40;36.00
65157;BME280;52745;49.794;18.258;2023-02-28T13:33:37;-16148.34;;;7.90;39.26
65157;BME280;52745;49.794;18.258;2023-02-28T13:36:40;-16142.06;;;7.66;38.51
65157;BME280;52745;49.794;18.258;2023-02-28T13:47:51;-16129.50;;;7.19;39.37
65157;BME280;52745;49.794;18.258;2023-02-28T13:50:36;-16122.38;;;6.93;39.42
65157;BME280;52745;49.794;18.258;2023-02-28T14:01:40;-16139.75;;;7.58;38.86
65157;BME280;52745;49.794;18.258;2023-02-28T14:07:01;-16136.88;;;7.47;39.82
65157;BME280;52745;49.794;18.258;2023-02-28T14:09:35;-16124.72;;;7.01;40.69
65157;BME280;52745;49.794;18.258;2023-02-28T14:15:28;-16125.25;;;7.03;41.10
65157;BME280;52745;49.794;18.258;2023-02-28T14:17:59;-16126.09;;;7.07;40.43
65157;BME280;52745;49.794;18.258;2023-02-28T14:20:31;-16118.28;;;6.77;40.47
65157;BME280;52745;49.794;18.258;2023-02-28T14:23:03;-16118.44;;;6.78;42.55
65157;BME280;52745;49.794;18.258;2023-02-28T14:33:35;-16101.06;;;6.13;42.59
65157;BME280;52745;49.794;18.258;2023-02-28T14:36:14;-16094.91;;;5.90;44.29
65157;BME280;52745;49.794;18.258;2023-02-28T14:38:45;-16091.63;;;5.77;43.80
65157;BME280;52745;49.794;18.258;2023-02-28T14:41:30;-16086.03;;;5.56;44.42
65157;BME280;52745;49.794;18.258;2023-02-28T14:43:59;-16084.41;;;5.50;45.13
65157;BME280;52745;49.794;18.258;2023-02-28T14:46:35;-16077.84;;;5.26;45.68
65157;BME280;52745;49.794;18.258;2023-02-28T14:49:05;-16078.09;;;5.27;46.02
65157;BME280;52745;49.794;18.258;2023-02-28T14:51:33;-16076.47;;;5.21;45.72
65157;BME280;52745;49.794;18.258;2023-02-28T14:54:01;-16078.25;;;5.27;45.17
65157;BME280;52745;49.794;18.258;2023-02-28T14:56:36;-16077.41;;;5.24;45.75
65157;BME280;52745;49.794;18.258;2023-02-28T14:59:05;-16076.59;;;5.21;44.57